DAL2195 KTPA-KLGA
Flight info
| Callsign | DAL2195 |
|---|---|
| Flight time | 2h 13m |
| Altitude | 37000 |
| Route | BAYPO2 CAMJO Q99 POLYY DCT DADDS Q87 HURTS PROUD2 |
| Aircraft | A321/M-SDE3FGHIRWY/LB1 |
Departure
| Time | 2026-05-06 21:07 |
|---|---|
| Airport | Tampa International Airport (KTPA) |
Arrival
| Time | 2026-05-06 23:21 |
|---|---|
| Airport | LaGuardia Airport (KLGA) |
| Time | Latitude | Longitude | Altitude | Speed | Heading |
|---|---|---|---|---|---|
| 2026-05-06 20:50 | 27.97999 | -82.53884 | 42 ft | 0 kts | 91° |
| 2026-05-06 20:58 | 27.97999 | -82.53895 | 43 ft | 2 kts | 89° |
| 2026-05-06 20:59 | 27.97999 | -82.53913 | 40 ft | 2 kts | 87° |
| 2026-05-06 20:59 | 27.97998 | -82.53932 | 40 ft | 2 kts | 85° |
| 2026-05-06 20:59 | 27.97996 | -82.53950 | 41 ft | 2 kts | 75° |
| 2026-05-06 20:59 | 27.97990 | -82.53967 | 43 ft | 2 kts | 41° |
| 2026-05-06 21:00 | 27.97981 | -82.53975 | 46 ft | 1 kts | 26° |
| 2026-05-06 21:03 | 27.97983 | -82.53974 | 46 ft | 3 kts | 24° |
| 2026-05-06 21:03 | 27.98035 | -82.53976 | 47 ft | 8 kts | 0° |
| 2026-05-06 21:03 | 27.98085 | -82.53971 | 47 ft | 6 kts | 5° |
| 2026-05-06 21:03 | 27.98135 | -82.53968 | 47 ft | 11 kts | 3° |
| 2026-05-06 21:04 | 27.98240 | -82.53966 | 47 ft | 16 kts | 1° |
| 2026-05-06 21:04 | 27.98345 | -82.53962 | 47 ft | 14 kts | 2° |
| 2026-05-06 21:04 | 27.98438 | -82.53959 | 48 ft | 14 kts | 1° |
| 2026-05-06 21:04 | 27.98542 | -82.53955 | 48 ft | 16 kts | 2° |
| 2026-05-06 21:05 | 27.98665 | -82.53952 | 47 ft | 19 kts | 1° |
| 2026-05-06 21:05 | 27.98810 | -82.53947 | 47 ft | 22 kts | 2° |
| 2026-05-06 21:05 | 27.98974 | -82.53939 | 47 ft | 25 kts | 1° |
| 2026-05-06 21:05 | 27.99157 | -82.53935 | 46 ft | 27 kts | 1° |
| 2026-05-06 21:06 | 27.99304 | -82.53931 | 46 ft | 16 kts | 353° |
| 2026-05-06 21:06 | 27.99349 | -82.54021 | 46 ft | 14 kts | 271° |
| 2026-05-06 21:06 | 27.99341 | -82.54124 | 46 ft | 13 kts | 237° |
| 2026-05-06 21:06 | 27.99247 | -82.54135 | 47 ft | 20 kts | 180° |
| 2026-05-06 21:07 | 27.98894 | -82.54149 | 49 ft | 83 kts | 182° |
| 2026-05-06 21:07 | 27.98123 | -82.54177 | 48 ft | 136 kts | 182° |
| 2026-05-06 21:07 | 27.97030 | -82.54215 | 68 ft | 173 kts | 181° |
| 2026-05-06 21:07 | 27.95854 | -82.54411 | 649 ft | 167 kts | 210° |
| 2026-05-06 21:08 | 27.95162 | -82.55425 | 1115 ft | 171 kts | 261° |
| 2026-05-06 21:08 | 27.95432 | -82.56666 | 1715 ft | 172 kts | 304° |
| 2026-05-06 21:08 | 27.96470 | -82.57461 | 1860 ft | 198 kts | 346° |
| 2026-05-06 21:08 | 27.97866 | -82.57566 | 2047 ft | 214 kts | 359° |
| 2026-05-06 21:09 | 27.99419 | -82.57541 | 2271 ft | 233 kts | 1° |
| 2026-05-06 21:09 | 28.01135 | -82.57493 | 2392 ft | 259 kts | 1° |
| 2026-05-06 21:09 | 28.02959 | -82.57449 | 2855 ft | 269 kts | 2° |
| 2026-05-06 21:09 | 28.04846 | -82.57426 | 3576 ft | 272 kts | 2° |
| 2026-05-06 21:10 | 28.06736 | -82.57428 | 4272 ft | 274 kts | 1° |
| 2026-05-06 21:10 | 28.08619 | -82.57451 | 5056 ft | 273 kts | 0° |
| 2026-05-06 21:10 | 28.10524 | -82.57484 | 5704 ft | 276 kts | 1° |
| 2026-05-06 21:10 | 28.12448 | -82.57513 | 6404 ft | 276 kts | 1° |
| 2026-05-06 21:11 | 28.14382 | -82.57543 | 7003 ft | 281 kts | 0° |
| 2026-05-06 21:11 | 28.16370 | -82.57588 | 7520 ft | 286 kts | 360° |
| 2026-05-06 21:11 | 28.18346 | -82.57609 | 8200 ft | 285 kts | 0° |
| 2026-05-06 21:11 | 28.20318 | -82.57597 | 8785 ft | 288 kts | 0° |
| 2026-05-06 21:12 | 28.22352 | -82.57615 | 9318 ft | 292 kts | 359° |
| 2026-05-06 21:12 | 28.24374 | -82.57677 | 9915 ft | 294 kts | 358° |
| 2026-05-06 21:12 | 28.26454 | -82.57754 | 10226 ft | 306 kts | 358° |
| 2026-05-06 21:12 | 28.28607 | -82.57833 | 10352 ft | 323 kts | 358° |
| 2026-05-06 21:13 | 28.30951 | -82.57915 | 10477 ft | 340 kts | 358° |
| 2026-05-06 21:13 | 28.33342 | -82.57994 | 10619 ft | 355 kts | 358° |
| 2026-05-06 21:13 | 28.35826 | -82.58070 | 11003 ft | 360 kts | 358° |
| 2026-05-06 21:13 | 28.38294 | -82.58141 | 11489 ft | 363 kts | 358° |
| 2026-05-06 21:14 | 28.40773 | -82.58203 | 12033 ft | 364 kts | 358° |
| 2026-05-06 21:14 | 28.43318 | -82.58264 | 12531 ft | 366 kts | 358° |
| 2026-05-06 21:14 | 28.45867 | -82.58324 | 13067 ft | 368 kts | 358° |
| 2026-05-06 21:14 | 28.48448 | -82.58383 | 13578 ft | 371 kts | 357° |
| 2026-05-06 21:15 | 28.51003 | -82.58443 | 14061 ft | 373 kts | 356° |
| 2026-05-06 21:15 | 28.53603 | -82.58506 | 14485 ft | 376 kts | 356° |
| 2026-05-06 21:15 | 28.56206 | -82.58573 | 14915 ft | 378 kts | 356° |
| 2026-05-06 21:15 | 28.58856 | -82.58640 | 15327 ft | 381 kts | 356° |
| 2026-05-06 21:16 | 28.61518 | -82.58709 | 15762 ft | 384 kts | 356° |
| 2026-05-06 21:16 | 28.64200 | -82.58780 | 16160 ft | 386 kts | 356° |
| 2026-05-06 21:16 | 28.66893 | -82.58864 | 16557 ft | 389 kts | 354° |
| 2026-05-06 21:16 | 28.69587 | -82.59204 | 16949 ft | 390 kts | 351° |
| 2026-05-06 21:17 | 28.72291 | -82.59581 | 17350 ft | 393 kts | 351° |
| 2026-05-06 21:17 | 28.74978 | -82.59954 | 17733 ft | 395 kts | 350° |
| 2026-05-06 21:17 | 28.77715 | -82.60333 | 18132 ft | 398 kts | 350° |
| 2026-05-06 21:17 | 28.80473 | -82.60720 | 18484 ft | 400 kts | 350° |
| 2026-05-06 21:18 | 28.83242 | -82.61112 | 18860 ft | 402 kts | 349° |
| 2026-05-06 21:18 | 28.85997 | -82.61501 | 19218 ft | 403 kts | 349° |
| 2026-05-06 21:18 | 28.88783 | -82.61893 | 19568 ft | 404 kts | 349° |
| 2026-05-06 21:18 | 28.91580 | -82.62282 | 19926 ft | 405 kts | 349° |
| 2026-05-06 21:19 | 28.94382 | -82.62671 | 20277 ft | 407 kts | 349° |
| 2026-05-06 21:19 | 28.97191 | -82.63059 | 20622 ft | 408 kts | 348° |
| 2026-05-06 21:19 | 28.99979 | -82.63446 | 20966 ft | 409 kts | 348° |
| 2026-05-06 21:19 | 29.02807 | -82.63840 | 21298 ft | 410 kts | 348° |
| 2026-05-06 21:20 | 29.05638 | -82.64237 | 21639 ft | 412 kts | 348° |
| 2026-05-06 21:20 | 29.07568 | -82.64509 | 21867 ft | 413 kts | 347° |
| 2026-05-06 21:20 | 29.11352 | -82.65041 | 22313 ft | 414 kts | 347° |
| 2026-05-06 21:20 | 29.14217 | -82.65442 | 22650 ft | 416 kts | 347° |
| 2026-05-06 21:21 | 29.17090 | -82.65840 | 22993 ft | 417 kts | 347° |
| 2026-05-06 21:21 | 29.19972 | -82.66241 | 23319 ft | 418 kts | 347° |
| 2026-05-06 21:21 | 29.22872 | -82.66651 | 23644 ft | 420 kts | 347° |
| 2026-05-06 21:21 | 29.25734 | -82.67057 | 23923 ft | 421 kts | 347° |
| 2026-05-06 21:22 | 29.28645 | -82.67469 | 24167 ft | 422 kts | 347° |
| 2026-05-06 21:22 | 29.31569 | -82.67881 | 24429 ft | 424 kts | 347° |
| 2026-05-06 21:22 | 29.34497 | -82.68293 | 24701 ft | 425 kts | 346° |
| 2026-05-06 21:22 | 29.37443 | -82.68706 | 24964 ft | 427 kts | 346° |
| 2026-05-06 21:23 | 29.40398 | -82.69122 | 25221 ft | 428 kts | 346° |
| 2026-05-06 21:23 | 29.43395 | -82.69321 | 25472 ft | 436 kts | 353° |
| 2026-05-06 21:23 | 29.45402 | -82.69308 | 25641 ft | 437 kts | 353° |
| 2026-05-06 21:23 | 29.48449 | -82.69283 | 25900 ft | 439 kts | 353° |
| 2026-05-06 21:24 | 29.52504 | -82.69253 | 26243 ft | 441 kts | 353° |
| 2026-05-06 21:24 | 29.55576 | -82.69234 | 26501 ft | 442 kts | 353° |
| 2026-05-06 21:24 | 29.58658 | -82.69218 | 26754 ft | 444 kts | 353° |
| 2026-05-06 21:24 | 29.61748 | -82.69202 | 27008 ft | 445 kts | 353° |
| 2026-05-06 21:25 | 29.63805 | -82.69190 | 27194 ft | 446 kts | 353° |
| 2026-05-06 21:25 | 29.66910 | -82.69171 | 27431 ft | 448 kts | 353° |
| 2026-05-06 21:25 | 29.70028 | -82.69151 | 27670 ft | 449 kts | 353° |
| 2026-05-06 21:25 | 29.73164 | -82.69132 | 27913 ft | 450 kts | 353° |
| 2026-05-06 21:26 | 29.76302 | -82.69114 | 28151 ft | 452 kts | 353° |
| 2026-05-06 21:26 | 29.80481 | -82.69084 | 28453 ft | 454 kts | 353° |
| 2026-05-06 21:26 | 29.83639 | -82.69062 | 28682 ft | 456 kts | 353° |
| 2026-05-06 21:26 | 29.85783 | -82.69048 | 28843 ft | 457 kts | 353° |
| 2026-05-06 21:27 | 29.88966 | -82.69029 | 29074 ft | 458 kts | 353° |
| 2026-05-06 21:27 | 29.92117 | -82.69010 | 29354 ft | 458 kts | 353° |
| 2026-05-06 21:27 | 29.95296 | -82.68990 | 29682 ft | 457 kts | 353° |
| 2026-05-06 21:27 | 29.98476 | -82.68965 | 30006 ft | 456 kts | 353° |
| 2026-05-06 21:28 | 30.01648 | -82.68940 | 30290 ft | 455 kts | 352° |
| 2026-05-06 21:28 | 30.04807 | -82.68917 | 30559 ft | 454 kts | 352° |
| 2026-05-06 21:28 | 30.07963 | -82.68897 | 30850 ft | 452 kts | 352° |
| 2026-05-06 21:28 | 30.11103 | -82.68877 | 31130 ft | 451 kts | 352° |
| 2026-05-06 21:29 | 30.14243 | -82.68858 | 31404 ft | 450 kts | 352° |
| 2026-05-06 21:29 | 30.17371 | -82.68840 | 31689 ft | 449 kts | 352° |
| 2026-05-06 21:29 | 30.20439 | -82.68823 | 32007 ft | 447 kts | 352° |
| 2026-05-06 21:29 | 30.23550 | -82.68806 | 32330 ft | 446 kts | 352° |
| 2026-05-06 21:30 | 30.26654 | -82.68787 | 32623 ft | 445 kts | 352° |
| 2026-05-06 21:30 | 30.29733 | -82.68765 | 32919 ft | 443 kts | 352° |
| 2026-05-06 21:30 | 30.32817 | -82.68742 | 33215 ft | 442 kts | 352° |
| 2026-05-06 21:30 | 30.35885 | -82.68722 | 33497 ft | 440 kts | 352° |
| 2026-05-06 21:31 | 30.38909 | -82.68705 | 33769 ft | 439 kts | 352° |
| 2026-05-06 21:31 | 30.41953 | -82.68693 | 34034 ft | 438 kts | 352° |
| 2026-05-06 21:31 | 30.45004 | -82.68680 | 34270 ft | 437 kts | 352° |
| 2026-05-06 21:31 | 30.48041 | -82.68665 | 34470 ft | 437 kts | 352° |
| 2026-05-06 21:32 | 30.51093 | -82.68546 | 34666 ft | 443 kts | 358° |
| 2026-05-06 21:32 | 30.57217 | -82.67310 | 35017 ft | 448 kts | 1° |
| 2026-05-06 21:32 | 30.60291 | -82.66650 | 35201 ft | 448 kts | 1° |
| 2026-05-06 21:33 | 30.63313 | -82.66001 | 35383 ft | 448 kts | 1° |
| 2026-05-06 21:33 | 30.66378 | -82.65345 | 35565 ft | 448 kts | 1° |
| 2026-05-06 21:33 | 30.69440 | -82.64693 | 35742 ft | 448 kts | 1° |
| 2026-05-06 21:33 | 30.72502 | -82.64040 | 35917 ft | 448 kts | 1° |
| 2026-05-06 21:34 | 30.75573 | -82.63383 | 36075 ft | 448 kts | 1° |
| 2026-05-06 21:34 | 30.78629 | -82.62727 | 36242 ft | 448 kts | 1° |
| 2026-05-06 21:34 | 30.81689 | -82.62071 | 36397 ft | 448 kts | 1° |
| 2026-05-06 21:34 | 30.84757 | -82.61415 | 36550 ft | 448 kts | 1° |
| 2026-05-06 21:35 | 30.87818 | -82.60759 | 36690 ft | 448 kts | 1° |
| 2026-05-06 21:35 | 30.90846 | -82.60110 | 36836 ft | 448 kts | 1° |
| 2026-05-06 21:35 | 30.93907 | -82.59454 | 36997 ft | 447 kts | 1° |
| 2026-05-06 21:35 | 30.96969 | -82.58798 | 37052 ft | 448 kts | 0° |
| 2026-05-06 21:36 | 31.03093 | -82.57481 | 37087 ft | 447 kts | 1° |
| 2026-05-06 21:36 | 31.09199 | -82.55817 | 37050 ft | 461 kts | 12° |
| 2026-05-06 21:37 | 31.15007 | -82.52474 | 37052 ft | 471 kts | 18° |
| 2026-05-06 21:37 | 31.20815 | -82.48935 | 37035 ft | 471 kts | 18° |
| 2026-05-06 21:38 | 31.26626 | -82.45397 | 37038 ft | 471 kts | 18° |
| 2026-05-06 21:38 | 31.32445 | -82.41854 | 37060 ft | 471 kts | 17° |
| 2026-05-06 21:39 | 31.38228 | -82.38333 | 37050 ft | 472 kts | 17° |
| 2026-05-06 21:39 | 31.44049 | -82.34787 | 37049 ft | 472 kts | 17° |
| 2026-05-06 21:40 | 31.49868 | -82.31231 | 37049 ft | 472 kts | 18° |
| 2026-05-06 21:40 | 31.55694 | -82.27660 | 37046 ft | 472 kts | 18° |
| 2026-05-06 21:41 | 31.61467 | -82.24126 | 37064 ft | 473 kts | 17° |
| 2026-05-06 21:41 | 31.67303 | -82.20550 | 37050 ft | 473 kts | 17° |
| 2026-05-06 21:42 | 31.73138 | -82.16967 | 37051 ft | 473 kts | 17° |
| 2026-05-06 21:42 | 31.78980 | -82.13378 | 37045 ft | 474 kts | 17° |
| 2026-05-06 21:43 | 31.84779 | -82.09801 | 37050 ft | 474 kts | 17° |
| 2026-05-06 21:43 | 31.90608 | -82.06199 | 37039 ft | 473 kts | 17° |
| 2026-05-06 21:44 | 31.96437 | -82.02595 | 37040 ft | 473 kts | 17° |
| 2026-05-06 21:44 | 32.02272 | -81.98988 | 37040 ft | 474 kts | 17° |
| 2026-05-06 21:45 | 32.08102 | -81.95371 | 37025 ft | 474 kts | 17° |
| 2026-05-06 21:45 | 32.13895 | -81.91775 | 37039 ft | 474 kts | 17° |
| 2026-05-06 21:46 | 32.19743 | -81.88233 | 37036 ft | 471 kts | 15° |
| 2026-05-06 21:46 | 32.25620 | -81.84829 | 37029 ft | 470 kts | 15° |
| 2026-05-06 21:47 | 32.31464 | -81.81448 | 37027 ft | 471 kts | 15° |
| 2026-05-06 21:47 | 32.37328 | -81.78010 | 37003 ft | 470 kts | 15° |
| 2026-05-06 21:48 | 32.43162 | -81.74564 | 36988 ft | 468 kts | 15° |
| 2026-05-06 21:48 | 32.49003 | -81.71115 | 36989 ft | 469 kts | 15° |
| 2026-05-06 21:49 | 32.54841 | -81.67666 | 36992 ft | 469 kts | 15° |
| 2026-05-06 21:49 | 32.60639 | -81.64220 | 37004 ft | 469 kts | 15° |
| 2026-05-06 21:50 | 32.66474 | -81.60757 | 37043 ft | 469 kts | 14° |
| 2026-05-06 21:50 | 32.72312 | -81.57300 | 37034 ft | 468 kts | 14° |
| 2026-05-06 21:51 | 32.78135 | -81.53849 | 37025 ft | 468 kts | 14° |
| 2026-05-06 21:51 | 32.83918 | -81.50406 | 37022 ft | 468 kts | 15° |
| 2026-05-06 21:52 | 32.89736 | -81.46933 | 37033 ft | 468 kts | 14° |
| 2026-05-06 21:52 | 32.95554 | -81.43457 | 37018 ft | 468 kts | 14° |
| 2026-05-06 21:53 | 33.01376 | -81.39981 | 37010 ft | 468 kts | 14° |
| 2026-05-06 21:53 | 33.07200 | -81.36497 | 37011 ft | 468 kts | 14° |
| 2026-05-06 21:54 | 33.12983 | -81.33028 | 37006 ft | 469 kts | 14° |
| 2026-05-06 21:54 | 33.18804 | -81.29525 | 37004 ft | 469 kts | 14° |
| 2026-05-06 21:55 | 33.24624 | -81.26026 | 37015 ft | 468 kts | 14° |
| 2026-05-06 21:55 | 33.30396 | -81.22545 | 37017 ft | 467 kts | 14° |
| 2026-05-06 21:56 | 33.36192 | -81.19049 | 37017 ft | 466 kts | 14° |
| 2026-05-06 21:56 | 33.41979 | -81.15556 | 37023 ft | 466 kts | 14° |
| 2026-05-06 21:57 | 33.47758 | -81.12066 | 37010 ft | 465 kts | 14° |
| 2026-05-06 21:57 | 33.53502 | -81.08580 | 36995 ft | 465 kts | 14° |
| 2026-05-06 21:58 | 33.59277 | -81.05074 | 37001 ft | 465 kts | 14° |
| 2026-05-06 21:58 | 33.65046 | -81.01576 | 37001 ft | 466 kts | 14° |
| 2026-05-06 21:59 | 33.70827 | -80.98065 | 36996 ft | 466 kts | 14° |
| 2026-05-06 21:59 | 33.76608 | -80.94536 | 36971 ft | 466 kts | 15° |
| 2026-05-06 22:00 | 33.82353 | -80.91021 | 36964 ft | 467 kts | 14° |
| 2026-05-06 22:00 | 33.87934 | -80.86788 | 36991 ft | 485 kts | 27° |
| 2026-05-06 22:01 | 33.93264 | -80.81788 | 36976 ft | 486 kts | 27° |
| 2026-05-06 22:01 | 33.98596 | -80.76765 | 36969 ft | 487 kts | 27° |
| 2026-05-06 22:02 | 34.03900 | -80.71772 | 36969 ft | 487 kts | 27° |
| 2026-05-06 22:02 | 34.09247 | -80.66739 | 36969 ft | 487 kts | 27° |
| 2026-05-06 22:03 | 34.14582 | -80.61711 | 37031 ft | 488 kts | 27° |
| 2026-05-06 22:03 | 34.19947 | -80.56647 | 37017 ft | 489 kts | 27° |
| 2026-05-06 22:04 | 34.25313 | -80.51573 | 37014 ft | 489 kts | 26° |
| 2026-05-06 22:04 | 34.30643 | -80.46578 | 37025 ft | 487 kts | 25° |
| 2026-05-06 22:05 | 34.36045 | -80.41634 | 37040 ft | 486 kts | 25° |
| 2026-05-06 22:05 | 34.41441 | -80.36698 | 37015 ft | 487 kts | 25° |
| 2026-05-06 22:06 | 34.46830 | -80.31712 | 36998 ft | 488 kts | 25° |
| 2026-05-06 22:06 | 34.52177 | -80.26736 | 37002 ft | 488 kts | 26° |
| 2026-05-06 22:07 | 34.57568 | -80.21726 | 36997 ft | 488 kts | 25° |
| 2026-05-06 22:07 | 34.62958 | -80.16717 | 37006 ft | 489 kts | 25° |
| 2026-05-06 22:08 | 34.68353 | -80.11696 | 37000 ft | 488 kts | 25° |
| 2026-05-06 22:08 | 34.73705 | -80.06709 | 36999 ft | 488 kts | 25° |
| 2026-05-06 22:09 | 34.79101 | -80.01696 | 36996 ft | 488 kts | 26° |
| 2026-05-06 22:09 | 34.81658 | -79.98891 | 36995 ft | 503 kts | 37° |
| 2026-05-06 22:09 | 34.83940 | -79.95603 | 37021 ft | 510 kts | 40° |
| 2026-05-06 22:10 | 34.88423 | -79.88875 | 36974 ft | 513 kts | 41° |
| 2026-05-06 22:10 | 34.92902 | -79.82173 | 36965 ft | 514 kts | 40° |
| 2026-05-06 22:11 | 34.97418 | -79.75415 | 36980 ft | 514 kts | 40° |
| 2026-05-06 22:11 | 35.01923 | -79.68649 | 36966 ft | 513 kts | 40° |
| 2026-05-06 22:12 | 35.06416 | -79.61879 | 36982 ft | 513 kts | 40° |
| 2026-05-06 22:12 | 35.10909 | -79.55104 | 36961 ft | 514 kts | 41° |
| 2026-05-06 22:13 | 35.15377 | -79.48361 | 36956 ft | 514 kts | 41° |
| 2026-05-06 22:13 | 35.19879 | -79.41552 | 36989 ft | 515 kts | 40° |
| 2026-05-06 22:14 | 35.24365 | -79.34749 | 37003 ft | 514 kts | 41° |
| 2026-05-06 22:14 | 35.28841 | -79.27938 | 37021 ft | 513 kts | 40° |
| 2026-05-06 22:15 | 35.33286 | -79.21178 | 37005 ft | 514 kts | 40° |
| 2026-05-06 22:15 | 35.37758 | -79.14347 | 36990 ft | 514 kts | 40° |
| 2026-05-06 22:16 | 35.42236 | -79.07502 | 36977 ft | 514 kts | 40° |
| 2026-05-06 22:16 | 35.46705 | -79.00660 | 36985 ft | 514 kts | 40° |
| 2026-05-06 22:17 | 35.51165 | -78.93821 | 36982 ft | 513 kts | 40° |
| 2026-05-06 22:17 | 35.55620 | -78.86973 | 36984 ft | 512 kts | 40° |
| 2026-05-06 22:18 | 35.60202 | -78.80357 | 36983 ft | 498 kts | 31° |
| 2026-05-06 22:18 | 35.62789 | -78.77725 | 36981 ft | 482 kts | 22° |
| 2026-05-06 22:18 | 35.65593 | -78.75593 | 36980 ft | 470 kts | 16° |
| 2026-05-06 22:19 | 35.71299 | -78.71663 | 36977 ft | 470 kts | 16° |
| 2026-05-06 22:19 | 35.76873 | -78.67348 | 36995 ft | 487 kts | 26° |
| 2026-05-06 22:20 | 35.82165 | -78.62153 | 36990 ft | 487 kts | 26° |
| 2026-05-06 22:20 | 35.87436 | -78.56914 | 36999 ft | 486 kts | 26° |
| 2026-05-06 22:21 | 35.92663 | -78.51719 | 36992 ft | 486 kts | 26° |
| 2026-05-06 22:21 | 35.97928 | -78.46495 | 36998 ft | 486 kts | 26° |
| 2026-05-06 22:22 | 36.03199 | -78.41268 | 36980 ft | 486 kts | 26° |
| 2026-05-06 22:22 | 36.08479 | -78.36020 | 36976 ft | 487 kts | 26° |
| 2026-05-06 22:23 | 36.13717 | -78.30789 | 36977 ft | 488 kts | 26° |
| 2026-05-06 22:23 | 36.18996 | -78.25502 | 37009 ft | 488 kts | 26° |
| 2026-05-06 22:24 | 36.24279 | -78.20216 | 36991 ft | 488 kts | 26° |
| 2026-05-06 22:24 | 36.29568 | -78.14916 | 36975 ft | 489 kts | 26° |
| 2026-05-06 22:25 | 36.34848 | -78.09611 | 36968 ft | 489 kts | 26° |
| 2026-05-06 22:25 | 36.40099 | -78.04326 | 36988 ft | 489 kts | 26° |
| 2026-05-06 22:26 | 36.45389 | -77.98994 | 36973 ft | 490 kts | 26° |
| 2026-05-06 22:26 | 36.50673 | -77.93660 | 36968 ft | 490 kts | 26° |
| 2026-05-06 22:27 | 36.55952 | -77.88318 | 36971 ft | 489 kts | 26° |
| 2026-05-06 22:27 | 36.61219 | -77.82973 | 37038 ft | 488 kts | 26° |
| 2026-05-06 22:28 | 36.66487 | -77.77627 | 36935 ft | 489 kts | 26° |
| 2026-05-06 22:28 | 36.71733 | -77.72312 | 36937 ft | 490 kts | 26° |
| 2026-05-06 22:29 | 36.77017 | -77.66931 | 36951 ft | 491 kts | 26° |
| 2026-05-06 22:29 | 36.82298 | -77.61522 | 36948 ft | 491 kts | 26° |
| 2026-05-06 22:30 | 36.87586 | -77.56108 | 36942 ft | 492 kts | 27° |
| 2026-05-06 22:30 | 36.92877 | -77.50684 | 36952 ft | 492 kts | 27° |
| 2026-05-06 22:31 | 36.98129 | -77.45282 | 36942 ft | 492 kts | 27° |
| 2026-05-06 22:31 | 37.03419 | -77.39849 | 36945 ft | 492 kts | 27° |
| 2026-05-06 22:32 | 37.08688 | -77.34417 | 36956 ft | 493 kts | 27° |
| 2026-05-06 22:32 | 37.13985 | -77.28946 | 36948 ft | 494 kts | 27° |
| 2026-05-06 22:33 | 37.19286 | -77.23458 | 36940 ft | 494 kts | 27° |
| 2026-05-06 22:33 | 37.24569 | -77.17985 | 36945 ft | 493 kts | 27° |
| 2026-05-06 22:34 | 37.29823 | -77.12538 | 36945 ft | 493 kts | 27° |
| 2026-05-06 22:34 | 37.35114 | -77.07039 | 36940 ft | 494 kts | 27° |
| 2026-05-06 22:35 | 37.40411 | -77.01514 | 36937 ft | 494 kts | 27° |
| 2026-05-06 22:35 | 37.45731 | -76.96060 | 36932 ft | 486 kts | 22° |
| 2026-05-06 22:36 | 37.48561 | -76.93884 | 36943 ft | 471 kts | 14° |
| 2026-05-06 22:36 | 37.51468 | -76.91964 | 36916 ft | 472 kts | 14° |
| 2026-05-06 22:36 | 37.57258 | -76.88146 | 36898 ft | 474 kts | 14° |
| 2026-05-06 22:37 | 37.63098 | -76.84262 | 36912 ft | 475 kts | 15° |
| 2026-05-06 22:37 | 37.68939 | -76.80348 | 36921 ft | 475 kts | 15° |
| 2026-05-06 22:38 | 37.74754 | -76.76443 | 36919 ft | 475 kts | 15° |
| 2026-05-06 22:38 | 37.80548 | -76.72573 | 36917 ft | 475 kts | 15° |
| 2026-05-06 22:39 | 37.86396 | -76.68671 | 36911 ft | 475 kts | 15° |
| 2026-05-06 22:39 | 37.92258 | -76.64831 | 36912 ft | 473 kts | 13° |
| 2026-05-06 22:40 | 37.98153 | -76.61138 | 36909 ft | 473 kts | 13° |
| 2026-05-06 22:40 | 38.04050 | -76.57453 | 36906 ft | 473 kts | 13° |
| 2026-05-06 22:41 | 38.12885 | -76.51834 | 36926 ft | 475 kts | 13° |
| 2026-05-06 22:42 | 38.18751 | -76.48086 | 36890 ft | 475 kts | 13° |
| 2026-05-06 22:42 | 38.24661 | -76.44307 | 36888 ft | 475 kts | 13° |
| 2026-05-06 22:43 | 38.30486 | -76.40179 | 36890 ft | 493 kts | 25° |
| 2026-05-06 22:43 | 38.35963 | -76.34856 | 36910 ft | 496 kts | 25° |
| 2026-05-06 22:44 | 38.41442 | -76.29479 | 36901 ft | 497 kts | 25° |
| 2026-05-06 22:44 | 38.46923 | -76.24102 | 36902 ft | 498 kts | 25° |
| 2026-05-06 22:45 | 38.52422 | -76.18713 | 36645 ft | 498 kts | 25° |
| 2026-05-06 22:45 | 38.55140 | -76.16049 | 36040 ft | 502 kts | 25° |
| 2026-05-06 22:45 | 38.57924 | -76.13317 | 35253 ft | 506 kts | 26° |
| 2026-05-06 22:45 | 38.60724 | -76.10565 | 34486 ft | 510 kts | 26° |
| 2026-05-06 22:46 | 38.63556 | -76.07786 | 33645 ft | 515 kts | 27° |
| 2026-05-06 22:46 | 38.66434 | -76.05024 | 32721 ft | 519 kts | 26° |
| 2026-05-06 22:46 | 38.69357 | -76.02283 | 31888 ft | 521 kts | 26° |
| 2026-05-06 22:46 | 38.72293 | -75.99572 | 31276 ft | 519 kts | 26° |
| 2026-05-06 22:47 | 38.75213 | -75.96879 | 30716 ft | 517 kts | 26° |
| 2026-05-06 22:47 | 38.78128 | -75.94181 | 30123 ft | 515 kts | 26° |
| 2026-05-06 22:47 | 38.81020 | -75.91484 | 29491 ft | 513 kts | 27° |
| 2026-05-06 22:47 | 38.83886 | -75.88796 | 28933 ft | 508 kts | 27° |
| 2026-05-06 22:48 | 38.86688 | -75.86159 | 28376 ft | 503 kts | 27° |
| 2026-05-06 22:48 | 38.89496 | -75.83508 | 27814 ft | 499 kts | 27° |
| 2026-05-06 22:48 | 38.92278 | -75.80874 | 27260 ft | 495 kts | 27° |
| 2026-05-06 22:48 | 38.95036 | -75.78265 | 26722 ft | 491 kts | 27° |
| 2026-05-06 22:49 | 38.97756 | -75.75691 | 26526 ft | 479 kts | 27° |
| 2026-05-06 22:49 | 39.00421 | -75.73165 | 26324 ft | 474 kts | 27° |
| 2026-05-06 22:49 | 39.03061 | -75.70670 | 26079 ft | 470 kts | 27° |
| 2026-05-06 22:49 | 39.05696 | -75.68182 | 25837 ft | 468 kts | 27° |
| 2026-05-06 22:50 | 39.08313 | -75.65709 | 25605 ft | 467 kts | 27° |
| 2026-05-06 22:50 | 39.10925 | -75.63236 | 25368 ft | 465 kts | 27° |
| 2026-05-06 22:50 | 39.13522 | -75.60774 | 25165 ft | 463 kts | 27° |
| 2026-05-06 22:50 | 39.16120 | -75.58308 | 24898 ft | 463 kts | 27° |
| 2026-05-06 22:51 | 39.18671 | -75.55882 | 24675 ft | 461 kts | 27° |
| 2026-05-06 22:51 | 39.21246 | -75.53426 | 24453 ft | 460 kts | 27° |
| 2026-05-06 22:51 | 39.23817 | -75.50978 | 24213 ft | 458 kts | 27° |
| 2026-05-06 22:51 | 39.26396 | -75.48601 | 23990 ft | 455 kts | 25° |
| 2026-05-06 22:52 | 39.28988 | -75.46294 | 23767 ft | 452 kts | 25° |
| 2026-05-06 22:52 | 39.31592 | -75.44019 | 23535 ft | 450 kts | 24° |
| 2026-05-06 22:52 | 39.34184 | -75.41768 | 23297 ft | 449 kts | 24° |
| 2026-05-06 22:52 | 39.36774 | -75.39514 | 23063 ft | 448 kts | 25° |
| 2026-05-06 22:53 | 39.39348 | -75.37253 | 22844 ft | 447 kts | 25° |
| 2026-05-06 22:53 | 39.41908 | -75.34985 | 22617 ft | 445 kts | 25° |
| 2026-05-06 22:53 | 39.44394 | -75.32766 | 22398 ft | 443 kts | 25° |
| 2026-05-06 22:53 | 39.46925 | -75.30503 | 22178 ft | 442 kts | 26° |
| 2026-05-06 22:54 | 39.49449 | -75.28241 | 21960 ft | 440 kts | 26° |
| 2026-05-06 22:54 | 39.51951 | -75.25988 | 21656 ft | 439 kts | 26° |
| 2026-05-06 22:54 | 39.54444 | -75.23697 | 21121 ft | 437 kts | 27° |
| 2026-05-06 22:54 | 39.56895 | -75.21397 | 20641 ft | 434 kts | 27° |
| 2026-05-06 22:55 | 39.59317 | -75.19099 | 20174 ft | 430 kts | 28° |
| 2026-05-06 22:55 | 39.61719 | -75.16813 | 19702 ft | 426 kts | 28° |
| 2026-05-06 22:55 | 39.64099 | -75.14553 | 19253 ft | 423 kts | 28° |
| 2026-05-06 22:55 | 39.66438 | -75.12340 | 18791 ft | 419 kts | 28° |
| 2026-05-06 22:56 | 39.68794 | -75.10143 | 18443 ft | 412 kts | 27° |
| 2026-05-06 22:56 | 39.71141 | -75.08060 | 18053 ft | 407 kts | 26° |
| 2026-05-06 22:56 | 39.73498 | -75.06049 | 17575 ft | 403 kts | 25° |
| 2026-05-06 22:56 | 39.75842 | -75.04080 | 17149 ft | 399 kts | 25° |
| 2026-05-06 22:57 | 39.78163 | -75.02131 | 16717 ft | 396 kts | 26° |
| 2026-05-06 22:57 | 39.80469 | -75.00178 | 16287 ft | 394 kts | 26° |
| 2026-05-06 22:57 | 39.82748 | -74.98231 | 15866 ft | 392 kts | 26° |
| 2026-05-06 22:57 | 39.84985 | -74.96306 | 15449 ft | 390 kts | 26° |
| 2026-05-06 22:58 | 39.87233 | -74.94329 | 15016 ft | 389 kts | 27° |
| 2026-05-06 22:58 | 39.89450 | -74.92323 | 14595 ft | 387 kts | 28° |
| 2026-05-06 22:58 | 39.91635 | -74.90283 | 14187 ft | 388 kts | 32° |
| 2026-05-06 22:58 | 39.93593 | -74.87826 | 13752 ft | 395 kts | 43° |
| 2026-05-06 22:59 | 39.95424 | -74.85154 | 13289 ft | 394 kts | 43° |
| 2026-05-06 22:59 | 39.97233 | -74.82539 | 13125 ft | 383 kts | 43° |
| 2026-05-06 22:59 | 39.98979 | -74.80028 | 12914 ft | 365 kts | 43° |
| 2026-05-06 22:59 | 40.00646 | -74.77643 | 12408 ft | 356 kts | 43° |
| 2026-05-06 23:00 | 40.02306 | -74.75279 | 11788 ft | 351 kts | 43° |
| 2026-05-06 23:00 | 40.03937 | -74.72953 | 11257 ft | 344 kts | 43° |
| 2026-05-06 23:00 | 40.05543 | -74.70657 | 10934 ft | 342 kts | 43° |
| 2026-05-06 23:00 | 40.07142 | -74.68369 | 10554 ft | 341 kts | 43° |
| 2026-05-06 23:01 | 40.08720 | -74.66106 | 10183 ft | 339 kts | 43° |
| 2026-05-06 23:01 | 40.10275 | -74.63869 | 9921 ft | 335 kts | 43° |
| 2026-05-06 23:01 | 40.11827 | -74.61629 | 9782 ft | 332 kts | 43° |
| 2026-05-06 23:01 | 40.13370 | -74.59404 | 9628 ft | 330 kts | 43° |
| 2026-05-06 23:02 | 40.14893 | -74.57209 | 9479 ft | 329 kts | 43° |
| 2026-05-06 23:02 | 40.16430 | -74.54998 | 9327 ft | 328 kts | 43° |
| 2026-05-06 23:02 | 40.17959 | -74.52796 | 9162 ft | 327 kts | 43° |
| 2026-05-06 23:02 | 40.19481 | -74.50601 | 9019 ft | 325 kts | 44° |
| 2026-05-06 23:03 | 40.21014 | -74.48437 | 8883 ft | 324 kts | 41° |
| 2026-05-06 23:03 | 40.22601 | -74.46362 | 8735 ft | 322 kts | 39° |
| 2026-05-06 23:03 | 40.24212 | -74.44346 | 8593 ft | 320 kts | 39° |
| 2026-05-06 23:03 | 40.25730 | -74.42475 | 8459 ft | 319 kts | 38° |
| 2026-05-06 23:04 | 40.27301 | -74.40539 | 8323 ft | 318 kts | 39° |
| 2026-05-06 23:04 | 40.28917 | -74.38533 | 8186 ft | 318 kts | 39° |
| 2026-05-06 23:04 | 40.30511 | -74.36535 | 8031 ft | 318 kts | 39° |
| 2026-05-06 23:04 | 40.32100 | -74.34530 | 7885 ft | 316 kts | 40° |
| 2026-05-06 23:05 | 40.33679 | -74.32528 | 7745 ft | 315 kts | 40° |
| 2026-05-06 23:05 | 40.35250 | -74.30539 | 7604 ft | 313 kts | 40° |
| 2026-05-06 23:05 | 40.36816 | -74.28565 | 7451 ft | 312 kts | 40° |
| 2026-05-06 23:05 | 40.38379 | -74.26598 | 7311 ft | 311 kts | 39° |
| 2026-05-06 23:06 | 40.39932 | -74.24631 | 7157 ft | 309 kts | 40° |
| 2026-05-06 23:06 | 40.41467 | -74.22662 | 7026 ft | 308 kts | 40° |
| 2026-05-06 23:06 | 40.42997 | -74.20700 | 7021 ft | 307 kts | 40° |
| 2026-05-06 23:06 | 40.44528 | -74.18742 | 7024 ft | 308 kts | 40° |
| 2026-05-06 23:07 | 40.46054 | -74.16793 | 7024 ft | 308 kts | 40° |
| 2026-05-06 23:07 | 40.47574 | -74.14857 | 7030 ft | 309 kts | 40° |
| 2026-05-06 23:07 | 40.49114 | -74.12899 | 6937 ft | 307 kts | 40° |
| 2026-05-06 23:07 | 40.50646 | -74.10949 | 6569 ft | 305 kts | 40° |
| 2026-05-06 23:08 | 40.52231 | -74.09136 | 6246 ft | 299 kts | 32° |
| 2026-05-06 23:08 | 40.53945 | -74.07638 | 5895 ft | 294 kts | 28° |
| 2026-05-06 23:08 | 40.55662 | -74.06192 | 5532 ft | 292 kts | 28° |
| 2026-05-06 23:08 | 40.57364 | -74.04750 | 5157 ft | 290 kts | 28° |
| 2026-05-06 23:09 | 40.59056 | -74.03309 | 4795 ft | 289 kts | 28° |
| 2026-05-06 23:09 | 40.60728 | -74.01888 | 4433 ft | 287 kts | 28° |
| 2026-05-06 23:09 | 40.62374 | -74.00496 | 4081 ft | 284 kts | 28° |
| 2026-05-06 23:09 | 40.64041 | -73.99090 | 4029 ft | 286 kts | 28° |
| 2026-05-06 23:10 | 40.65726 | -73.97674 | 4042 ft | 288 kts | 28° |
| 2026-05-06 23:10 | 40.67423 | -73.96283 | 4033 ft | 285 kts | 22° |
| 2026-05-06 23:10 | 40.69276 | -73.95631 | 4034 ft | 271 kts | 354° |
| 2026-05-06 23:10 | 40.71143 | -73.95757 | 4035 ft | 269 kts | 348° |
| 2026-05-06 23:11 | 40.73005 | -73.96006 | 4033 ft | 269 kts | 347° |
| 2026-05-06 23:11 | 40.74863 | -73.96266 | 4033 ft | 268 kts | 347° |
| 2026-05-06 23:11 | 40.76710 | -73.96532 | 4015 ft | 267 kts | 347° |
| 2026-05-06 23:11 | 40.78542 | -73.96799 | 4005 ft | 268 kts | 347° |
| 2026-05-06 23:12 | 40.80397 | -73.97064 | 4008 ft | 269 kts | 350° |
| 2026-05-06 23:12 | 40.82270 | -73.96723 | 3942 ft | 280 kts | 16° |
| 2026-05-06 23:12 | 40.84010 | -73.95534 | 3550 ft | 283 kts | 26° |
| 2026-05-06 23:12 | 40.85689 | -73.94188 | 3201 ft | 282 kts | 27° |
| 2026-05-06 23:13 | 40.87352 | -73.92834 | 2999 ft | 279 kts | 27° |
| 2026-05-06 23:13 | 40.88999 | -73.91490 | 3000 ft | 275 kts | 27° |
| 2026-05-06 23:13 | 40.90582 | -73.90188 | 2998 ft | 260 kts | 27° |
| 2026-05-06 23:13 | 40.92072 | -73.88953 | 2997 ft | 245 kts | 27° |
| 2026-05-06 23:14 | 40.93463 | -73.87778 | 2999 ft | 231 kts | 27° |
| 2026-05-06 23:14 | 40.94765 | -73.86676 | 2988 ft | 222 kts | 27° |
| 2026-05-06 23:14 | 40.96054 | -73.85612 | 3032 ft | 216 kts | 27° |
| 2026-05-06 23:14 | 40.97184 | -73.84338 | 3003 ft | 217 kts | 54° |
| 2026-05-06 23:15 | 40.97640 | -73.82485 | 2761 ft | 214 kts | 95° |
| 2026-05-06 23:15 | 40.97353 | -73.80618 | 2510 ft | 205 kts | 114° |
| 2026-05-06 23:15 | 40.96866 | -73.78840 | 2145 ft | 206 kts | 115° |
| 2026-05-06 23:15 | 40.96311 | -73.77123 | 2012 ft | 202 kts | 124° |
| 2026-05-06 23:16 | 40.95327 | -73.75917 | 2011 ft | 189 kts | 165° |
| 2026-05-06 23:16 | 40.94086 | -73.75465 | 2018 ft | 181 kts | 180° |
| 2026-05-06 23:16 | 40.92880 | -73.75521 | 2012 ft | 172 kts | 198° |
| 2026-05-06 23:16 | 40.91812 | -73.76139 | 2017 ft | 167 kts | 215° |
| 2026-05-06 23:17 | 40.90862 | -73.76881 | 2018 ft | 152 kts | 217° |
| 2026-05-06 23:17 | 40.89985 | -73.77594 | 2031 ft | 145 kts | 217° |
| 2026-05-06 23:17 | 40.89132 | -73.78296 | 2011 ft | 143 kts | 218° |
| 2026-05-06 23:17 | 40.88293 | -73.78990 | 2012 ft | 142 kts | 220° |
| 2026-05-06 23:18 | 40.87469 | -73.79672 | 1968 ft | 140 kts | 218° |
| 2026-05-06 23:18 | 40.86660 | -73.80343 | 1844 ft | 134 kts | 217° |
| 2026-05-06 23:18 | 40.85883 | -73.80986 | 1706 ft | 131 kts | 218° |
| 2026-05-06 23:18 | 40.85127 | -73.81613 | 1544 ft | 129 kts | 218° |
| 2026-05-06 23:19 | 40.84358 | -73.82252 | 1373 ft | 131 kts | 216° |
| 2026-05-06 23:19 | 40.83594 | -73.82884 | 1186 ft | 130 kts | 217° |
| 2026-05-06 23:19 | 40.82829 | -73.83518 | 1012 ft | 130 kts | 215° |
| 2026-05-06 23:19 | 40.82055 | -73.84161 | 830 ft | 133 kts | 214° |
| 2026-05-06 23:20 | 40.81257 | -73.84813 | 654 ft | 139 kts | 214° |
| 2026-05-06 23:20 | 40.80438 | -73.85474 | 524 ft | 137 kts | 212° |
| 2026-05-06 23:20 | 40.79638 | -73.86145 | 324 ft | 137 kts | 214° |
| 2026-05-06 23:20 | 40.78835 | -73.86833 | 127 ft | 137 kts | 212° |
| 2026-05-06 23:21 | 40.78056 | -73.87464 | 25 ft | 125 kts | 214° |
| 2026-05-06 23:21 | 40.77468 | -73.87947 | 22 ft | 62 kts | 212° |
| 2026-05-06 23:21 | 40.77323 | -73.88068 | 20 ft | 9 kts | 213° |
| 2026-05-06 23:21 | 40.77215 | -73.88158 | 19 ft | 28 kts | 212° |
| 2026-05-06 23:22 | 40.77097 | -73.88237 | 21 ft | 11 kts | 182° |
| 2026-05-06 23:22 | 40.77053 | -73.88172 | 21 ft | 10 kts | 73° |
| 2026-05-06 23:22 | 40.77110 | -73.88108 | 19 ft | 11 kts | 34° |
| 2026-05-06 23:22 | 40.77173 | -73.88056 | 20 ft | 10 kts | 32° |
| 2026-05-06 23:23 | 40.77265 | -73.87979 | 19 ft | 20 kts | 32° |
| 2026-05-06 23:23 | 40.77378 | -73.87886 | 21 ft | 18 kts | 32° |
| 2026-05-06 23:23 | 40.77474 | -73.87805 | 23 ft | 15 kts | 32° |
| 2026-05-06 23:23 | 40.77563 | -73.87732 | 22 ft | 15 kts | 32° |
| 2026-05-06 23:24 | 40.77611 | -73.87638 | 23 ft | 11 kts | 78° |
| 2026-05-06 23:24 | 40.77660 | -73.87567 | 24 ft | 10 kts | 31° |
| 2026-05-06 23:24 | 40.77721 | -73.87511 | 20 ft | 11 kts | 46° |
| 2026-05-06 23:24 | 40.77761 | -73.87414 | 19 ft | 12 kts | 68° |
| 2026-05-06 23:25 | 40.77772 | -73.87305 | 18 ft | 12 kts | 94° |
| 2026-05-06 23:25 | 40.77743 | -73.87204 | 18 ft | 12 kts | 118° |
| 2026-05-06 23:25 | 40.77701 | -73.87114 | 18 ft | 12 kts | 122° |
| 2026-05-06 23:25 | 40.77632 | -73.86970 | 13 ft | 23 kts | 123° |
| 2026-05-06 23:26 | 40.77545 | -73.86795 | 13 ft | 23 kts | 124° |
| 2026-05-06 23:26 | 40.77450 | -73.86615 | 10 ft | 24 kts | 122° |
| 2026-05-06 23:26 | 40.77364 | -73.86435 | 11 ft | 23 kts | 122° |
| 2026-05-06 23:26 | 40.77280 | -73.86261 | 14 ft | 21 kts | 122° |
| 2026-05-06 23:27 | 40.77206 | -73.86104 | 14 ft | 21 kts | 122° |
| 2026-05-06 23:27 | 40.77133 | -73.85952 | 14 ft | 14 kts | 121° |
| 2026-05-06 23:27 | 40.77055 | -73.85898 | 11 ft | 15 kts | 180° |
| 2026-05-06 23:27 | 40.76958 | -73.85928 | 12 ft | 11 kts | 199° |
| 2026-05-06 23:28 | 40.76933 | -73.85979 | 13 ft | 5 kts | 274° |
| 2026-05-06 23:28 | 40.76940 | -73.85999 | 14 ft | 0 kts | 302° |
| 2026-05-06 23:28 | 40.76946 | -73.86008 | 15 ft | 3 kts | 311° |
| 2026-05-06 23:28 | 40.76950 | -73.86013 | 15 ft | 0 kts | 311° |